Portada
METAR-TAF:

METAR-TAF

Aeropuertos :

Cairns, Australia

Aeropuerto de Cairns

latitud: 16-53S, longitud: 145-45E, altitud: 3 m

Observación

El informe se hizo hace 15 minutos, a las 15:00 UTC
Viento 4 kt del sur-sureste
Temperatura 24°C
Humedad 78%
Presión 1010 hPa
Visibilidad 10 km o más
Escasas nubes a una altura de 2500 ft

METAR: YBCS 111500Z 15004KT 9999 FEW025 24/20 Q1010

Hora: 01:15 (15:15 UTC)

Pronóstico

El informe se hizo hace 4 horas y 18 minutos, a las 10:57 UTC
Pronóstico válido del 11 a las 12 UTC al 12 a las 12 UTC
Viento 7 kt del sur-sureste
Visibilidad 10 km o más
Escasas nubes a una altura de 2500 ft
A partir de las 12 a las 0000 UTC
Viento 17 kt del sureste
Visibilidad 10 km o más
Escasas nubes a una altura de 3000 ft

TAF: YBCS 111057Z 1112/1212 16007KT 9999 FEW025 FM120000 13017KT 9999 FEW030

Observaciones y pronósticos meteorológicos de más de 4000 aeropuertos (mensajes METAR y TAF).

Los puntos amarillos y rojos representan las estaciones disponibles.

Ponga el ratón en el punto deseado para ver el nombre de la estación.

Haga clic para ver las observaciones y los pronósticos meteorológicos.

Para cambiar el mapa : haga clic en los botones verdes con una cruz de color negro para hacer un zoom, en el botón verde con un guión para alejar o en las flechas verdes para mapas adyacentes.


METAR-TAF: